Time;durP1;ratioP1;P1;durP2;ratioP2;P2;SDS_P1;SDS_P2;PMS_P1;PMS_P2;Temp;Humidity;BMP_temperature;BMP_pressure;BME280_temperature;BME280_humidity;BME280_pressure;Samples;Min_cycle;Max_cycle;Signal;HPM_P1;HPM_P2
2023/07/14 00:01:20;;;;;;;;;5.25;4.50;;;;;;;;5098680;27;45236;-44
2023/07/14 00:03:46;;;;;;;;;6.75;6.75;;;;;;;;5098502;27;45209;-43
2023/07/14 00:06:12;;;;;;;;;16.75;12.50;;;;;;;;5098659;27;45385;-45
2023/07/14 00:08:39;;;;;;;;;6.50;6.25;;;;;;;;5098447;27;47105;-45
2023/07/14 00:11:09;;;;;;;;;8.50;6.25;;;;;;;;5098195;27;45309;-45
2023/07/14 00:13:34;;;;;;;;;9.00;9.00;;;;;;;;5098574;27;45544;-44
2023/07/14 00:16:00;;;;;;;;;9.75;8.50;;;;;;;;5098760;27;45425;-44
2023/07/14 00:18:26;;;;;;;;;9.50;6.50;;;;;;;;5097970;27;46800;-44
2023/07/14 00:20:51;;;;;;;;;7.00;6.75;;;;;;;;5098376;27;45201;-44
2023/07/14 00:23:17;;;;;;;;;10.75;7.75;;;;;;;;5098280;27;45311;-43
2023/07/14 00:25:43;;;;;;;;;3.75;2.00;;;;;;;;5098336;27;45453;-45
2023/07/14 00:28:13;;;;;;;;;10.50;7.50;;;;;;;;5097862;27;46185;-43
2023/07/14 00:30:39;;;;;;;;;12.00;11.25;;;;;;;;5097680;27;45479;-44
2023/07/14 00:33:09;;;;;;;;;14.50;13.50;;;;;;;;5098079;27;45431;-43
2023/07/14 00:35:35;;;;;;;;;20.75;18.25;;;;;;;;5097705;27;45557;-43
2023/07/14 00:38:00;;;;;;;;;24.75;20.25;;;;;;;;5097599;27;46301;-43
2023/07/14 00:40:30;;;;;;;;;28.67;24.33;;;;;;;;5097650;27;45537;-43
2023/07/14 00:42:57;;;;;;;;;24.67;23.00;;;;;;;;5097921;27;45530;-43
2023/07/14 00:45:24;;;;;;;;;23.33;20.33;;;;;;;;5097945;27;45436;-44
2023/07/14 00:47:52;;;;;;;;;27.00;20.25;;;;;;;;5097849;27;46067;-43
2023/07/14 00:50:38;;;;;;;;;25.25;20.75;;;;;;;;5097790;27;45367;-44
2023/07/14 00:53:06;;;;;;;;;21.50;15.50;;;;;;;;5014606;28;45496;-45
2023/07/14 00:55:44;;;;;;;;;20.75;16.50;;;;;;;;5014858;28;45463;-44
2023/07/14 00:58:14;;;;;;;;;17.25;13.00;;;;;;;;5014515;28;45677;-43
2023/07/14 01:00:40;;;;;;;;;21.00;15.25;;;;;;;;5014748;28;45380;-43
2023/07/14 01:03:13;;;;;;;;;13.75;13.75;;;;;;;;4997883;28;45282;-42
2023/07/14 01:05:38;;;;;;;;;13.00;11.25;;;;;;;;5015152;28;45332;-44
2023/07/14 01:08:03;;;;;;;;;15.75;12.50;;;;;;;;5014606;28;45470;-43
2023/07/14 01:10:29;;;;;;;;;18.75;12.50;;;;;;;;5013581;28;45523;-43
2023/07/14 01:12:58;;;;;;;;;13.00;10.00;;;;;;;;5015013;28;45462;-43
2023/07/14 01:15:24;;;;;;;;;15.50;15.00;;;;;;;;5014976;28;45401;-43
2023/07/14 01:17:50;;;;;;;;;18.50;14.25;;;;;;;;5014320;28;46124;-42
2023/07/14 01:20:16;;;;;;;;;14.00;12.00;;;;;;;;5014726;28;45393;-44
2023/07/14 01:23:05;;;;;;;;;14.75;12.00;;;;;;;;5014567;28;45266;-44
2023/07/14 01:25:33;;;;;;;;;20.25;16.50;;;;;;;;5014754;28;45342;-46
2023/07/14 01:28:03;;;;;;;;;23.00;17.00;;;;;;;;5014548;28;45607;-44
2023/07/14 01:30:28;;;;;;;;;16.00;14.33;;;;;;;;5066224;27;45308;-43
2023/07/14 01:32:54;;;;;;;;;17.67;17.33;;;;;;;;5097456;27;45330;-43
2023/07/14 01:35:24;;;;;;;;;18.25;17.00;;;;;;;;5097559;27;45383;-45
2023/07/14 01:37:49;;;;;;;;;13.00;12.00;;;;;;;;5097239;27;47109;-44
2023/07/14 01:40:16;;;;;;;;;12.00;9.00;;;;;;;;5096693;27;45304;-44
2023/07/14 01:42:42;;;;;;;;;15.00;13.25;;;;;;;;5097459;27;45472;-43
2023/07/14 01:45:15;;;;;;;;;17.00;14.75;;;;;;;;5097564;27;45316;-44
2023/07/14 01:47:42;;;;;;;;;13.75;12.00;;;;;;;;5096964;27;46401;-42
2023/07/14 01:50:15;;;;;;;;;13.75;13.75;;;;;;;;5097147;27;45397;-42
2023/07/14 01:52:41;;;;;;;;;17.25;14.75;;;;;;;;5100598;27;45239;-43
2023/07/14 01:55:10;;;;;;;;;19.00;16.00;;;;;;;;5101136;27;45283;-43
2023/07/14 01:57:36;;;;;;;;;19.25;15.50;;;;;;;;5100566;27;45945;-44
2023/07/14 02:00:04;;;;;;;;;19.33;15.33;;;;;;;;5100762;27;45392;-44
2023/07/14 02:02:33;;;;;;;;;20.33;18.33;;;;;;;;5082419;27;45814;-42
2023/07/14 02:05:01;;;;;;;;;20.33;18.00;;;;;;;;5100811;27;45461;-43
2023/07/14 02:07:26;;;;;;;;;19.67;18.00;;;;;;;;5100492;27;46145;-44
2023/07/14 02:09:52;;;;;;;;;17.67;14.00;;;;;;;;5100454;27;45314;-44
2023/07/14 02:12:25;;;;;;;;;12.67;11.00;;;;;;;;5100660;27;45257;-43
2023/07/14 02:14:54;;;;;;;;;15.25;14.50;;;;;;;;5100639;27;45352;-44
2023/07/14 02:17:27;;;;;;;;;13.00;12.00;;;;;;;;5100485;27;45286;-43
2023/07/14 02:19:53;;;;;;;;;16.75;14.25;;;;;;;;5100389;27;45295;-44
2023/07/14 02:22:19;;;;;;;;;18.25;15.75;;;;;;;;5100643;27;45448;-44
2023/07/14 02:24:44;;;;;;;;;13.25;11.50;;;;;;;;5100641;27;45226;-43
2023/07/14 02:27:11;;;;;;;;;15.00;12.50;;;;;;;;5100303;27;46275;-44
2023/07/14 02:29:36;;;;;;;;;14.67;11.33;;;;;;;;5100255;27;45298;-43
2023/07/14 02:32:02;;;;;;;;;13.50;11.25;;;;;;;;5100220;27;45468;-44
2023/07/14 02:34:30;;;;;;;;;14.50;10.75;;;;;;;;5100305;27;45359;-43
2023/07/14 02:36:58;;;;;;;;;16.00;11.00;;;;;;;;5099545;27;45518;-44
2023/07/14 02:39:23;;;;;;;;;12.00;12.00;;;;;;;;5100040;27;45386;-43
2023/07/14 02:41:49;;;;;;;;;14.75;10.50;;;;;;;;5100312;27;45266;-43
2023/07/14 02:44:17;;;;;;;;;18.25;13.75;;;;;;;;5100479;27;45568;-43
2023/07/14 02:46:54;;;;;;;;;13.00;10.00;;;;;;;;5099861;27;47076;-43
2023/07/14 02:49:19;;;;;;;;;12.25;9.25;;;;;;;;5099173;27;46008;-45
2023/07/14 02:51:44;;;;;;;;;15.50;12.00;;;;;;;;5100230;27;45383;-47
2023/07/14 02:54:10;;;;;;;;;13.75;12.25;;;;;;;;5100421;27;45380;-43
2023/07/14 02:56:35;;;;;;;;;14.75;12.00;;;;;;;;5099842;27;46878;-43
2023/07/14 02:59:01;;;;;;;;;12.00;10.50;;;;;;;;5099751;27;45370;-44
2023/07/14 03:01:32;;;;;;;;;10.50;10.00;;;;;;;;5099989;27;45289;-43
2023/07/14 03:03:58;;;;;;;;;9.00;9.00;;;;;;;;5100072;27;45467;-43
2023/07/14 03:06:23;;;;;;;;;17.75;11.50;;;;;;;;5099518;27;47002;-46
2023/07/14 03:08:48;;;;;;;;;9.25;9.25;;;;;;;;5099709;27;45402;-44
2023/07/14 03:11:14;;;;;;;;;12.50;9.25;;;;;;;;5099616;27;45432;-43
2023/07/14 03:13:39;;;;;;;;;11.50;8.00;;;;;;;;5099889;27;45342;-44
2023/07/14 03:16:04;;;;;;;;;10.33;9.00;;;;;;;;5099464;27;46143;-43
2023/07/14 03:18:30;;;;;;;;;12.00;9.25;;;;;;;;5099352;27;45275;-43
2023/07/14 03:20:56;;;;;;;;;10.33;9.33;;;;;;;;5099637;27;45314;-44
2023/07/14 03:23:21;;;;;;;;;7.00;7.00;;;;;;;;5099730;27;45447;-43
2023/07/14 03:25:51;;;;;;;;;11.67;9.67;;;;;;;;5099276;27;46222;-45
2023/07/14 03:28:16;;;;;;;;;11.50;9.00;;;;;;;;5099389;27;45354;-43
2023/07/14 03:30:43;;;;;;;;;10.00;8.75;;;;;;;;5099316;27;45262;-44
2023/07/14 03:33:08;;;;;;;;;12.67;10.33;;;;;;;;5098684;27;45350;-43
2023/07/14 03:35:34;;;;;;;;;10.00;7.00;;;;;;;;5099142;27;46030;-43
2023/07/14 03:37:59;;;;;;;;;11.25;9.00;;;;;;;;5099098;27;45401;-44
2023/07/14 03:40:24;;;;;;;;;10.67;9.67;;;;;;;;5099246;27;45384;-41
2023/07/14 03:42:50;;;;;;;;;8.00;7.67;;;;;;;;5099440;27;45306;-42
2023/07/14 03:45:15;;;;;;;;;9.33;9.00;;;;;;;;5080682;27;45751;-45
2023/07/14 03:47:40;;;;;;;;;10.00;9.00;;;;;;;;5099196;27;45445;-43
2023/07/14 03:50:06;;;;;;;;;11.00;11.00;;;;;;;;5099202;27;45547;-43
2023/07/14 03:52:31;;;;;;;;;9.33;9.00;;;;;;;;5099485;27;45435;-44
2023/07/14 03:54:57;;;;;;;;;9.67;9.00;;;;;;;;5098763;27;45421;-43
2023/07/14 03:57:22;;;;;;;;;9.67;8.00;;;;;;;;5098981;27;45596;-43
2023/07/14 03:59:47;;;;;;;;;11.75;8.50;;;;;;;;5098919;27;45346;-44
2023/07/14 04:02:12;;;;;;;;;12.33;10.00;;;;;;;;5099117;27;45313;-44
2023/07/14 04:04:37;;;;;;;;;10.25;8.25;;;;;;;;5098621;27;45324;-42
2023/07/14 04:07:03;;;;;;;;;14.00;10.25;;;;;;;;5098730;27;45311;-42
2023/07/14 04:09:28;;;;;;;;;14.33;12.00;;;;;;;;5098440;27;45357;-43
2023/07/14 04:11:53;;;;;;;;;10.00;9.67;;;;;;;;5098874;27;45302;-43
2023/07/14 04:14:19;;;;;;;;;14.25;10.00;;;;;;;;5097946;27;47117;-43
2023/07/14 04:16:44;;;;;;;;;15.33;11.67;;;;;;;;5098632;27;45421;-44
2023/07/14 04:19:09;;;;;;;;;14.00;11.25;;;;;;;;5098646;27;45266;-43
2023/07/14 04:21:34;;;;;;;;;16.00;13.00;;;;;;;;5098841;27;45400;-50
2023/07/14 04:24:00;;;;;;;;;14.33;10.33;;;;;;;;5098298;27;45401;-44
2023/07/14 04:26:26;;;;;;;;;15.67;12.00;;;;;;;;5097871;27;45347;-47
2023/07/14 04:28:51;;;;;;;;;15.33;13.33;;;;;;;;5098607;27;45445;-44
2023/07/14 04:31:17;;;;;;;;;16.33;12.00;;;;;;;;5098322;27;45361;-44
2023/07/14 04:33:45;;;;;;;;;14.33;11.33;;;;;;;;5098368;27;45390;-48
2023/07/14 04:36:11;;;;;;;;;12.33;9.33;;;;;;;;5098167;27;45240;-43
2023/07/14 04:38:37;;;;;;;;;14.00;13.33;;;;;;;;5098198;27;45207;-43
2023/07/14 04:41:02;;;;;;;;;15.00;12.00;;;;;;;;5098514;27;45397;-44
2023/07/14 04:43:28;;;;;;;;;18.00;13.00;;;;;;;;5098236;27;45897;-43
2023/07/14 04:45:53;;;;;;;;;18.00;18.00;;;;;;;;5098291;27;45271;-44
2023/07/14 04:48:19;;;;;;;;;15.33;12.67;;;;;;;;5098405;27;45188;-44
2023/07/14 04:50:45;;;;;;;;;19.33;12.00;;;;;;;;5098254;27;45300;-43
2023/07/14 04:53:10;;;;;;;;;12.00;11.67;;;;;;;;5097956;27;46343;-43
2023/07/14 04:55:36;;;;;;;;;11.00;11.00;;;;;;;;5097881;27;45581;-44
2023/07/14 04:58:02;;;;;;;;;21.25;11.75;;;;;;;;5097982;27;45326;-43
2023/07/14 05:00:27;;;;;;;;;12.00;10.25;;;;;;;;5098219;27;45342;-43
2023/07/14 05:02:52;;;;;;;;;12.50;10.00;;;;;;;;5097662;27;46363;-42
2023/07/14 05:05:18;;;;;;;;;14.00;9.67;;;;;;;;5097849;27;45429;-44
2023/07/14 05:07:44;;;;;;;;;9.00;7.00;;;;;;;;5097896;27;45354;-43
2023/07/14 05:10:10;;;;;;;;;12.25;9.00;;;;;;;;5098197;27;45360;-44
2023/07/14 05:12:36;;;;;;;;;12.00;10.00;;;;;;;;5097718;27;46174;-43
2023/07/14 05:15:05;;;;;;;;;11.25;9.50;;;;;;;;5097661;27;45444;-43
2023/07/14 05:17:31;;;;;;;;;12.25;9.75;;;;;;;;5097766;27;45371;-44
2023/07/14 05:19:57;;;;;;;;;12.50;9.00;;;;;;;;5097898;27;45490;-43
2023/07/14 05:22:22;;;;;;;;;7.75;7.75;;;;;;;;5097632;27;45928;-42
2023/07/14 05:24:47;;;;;;;;;7.50;6.75;;;;;;;;5097744;27;45407;-43
2023/07/14 05:27:12;;;;;;;;;9.50;8.25;;;;;;;;5100434;27;45421;-44
2023/07/14 05:29:38;;;;;;;;;9.00;7.25;;;;;;;;5101860;27;45298;-43
2023/07/14 05:32:03;;;;;;;;;7.00;7.00;;;;;;;;5100854;27;45446;-44
2023/07/14 05:34:29;;;;;;;;;7.50;7.00;;;;;;;;5101237;27;45365;-43
2023/07/14 05:36:54;;;;;;;;;5.00;5.00;;;;;;;;5101021;27;45377;-43
2023/07/14 05:39:20;;;;;;;;;6.25;5.25;;;;;;;;5101536;27;45379;-43
2023/07/14 05:41:45;;;;;;;;;4.75;4.75;;;;;;;;5100999;27;45945;-44
2023/07/14 05:44:10;;;;;;;;;5.75;4.00;;;;;;;;5101143;27;45434;-44
2023/07/14 05:46:35;;;;;;;;;4.75;4.75;;;;;;;;5101334;27;45385;-44
2023/07/14 05:49:00;;;;;;;;;5.75;4.00;;;;;;;;5101278;27;45425;-42
2023/07/14 05:51:26;;;;;;;;;5.75;3.00;;;;;;;;5101024;27;45483;-44
2023/07/14 05:53:51;;;;;;;;;5.75;5.00;;;;;;;;5101837;27;45353;-45
2023/07/14 05:56:16;;;;;;;;;5.50;4.00;;;;;;;;5101632;27;45223;-43
2023/07/14 05:58:41;;;;;;;;;5.25;5.25;;;;;;;;5101205;27;45353;-43
2023/07/14 06:01:07;;;;;;;;;6.75;5.00;;;;;;;;5100777;27;45381;-43
2023/07/14 06:03:32;;;;;;;;;3.50;3.50;;;;;;;;5100750;27;45466;-44
2023/07/14 06:05:57;;;;;;;;;5.00;5.00;;;;;;;;5100704;27;45354;-41
2023/07/14 06:08:23;;;;;;;;;4.00;4.00;;;;;;;;5101159;27;45306;-45
2023/07/14 06:10:48;;;;;;;;;8.75;4.75;;;;;;;;5100802;27;46151;-48
2023/07/14 06:13:13;;;;;;;;;6.50;6.00;;;;;;;;5101187;27;45293;-44
2023/07/14 06:15:39;;;;;;;;;5.00;5.00;;;;;;;;5100830;27;45271;-43
2023/07/14 06:18:04;;;;;;;;;7.00;6.00;;;;;;;;5100899;27;45231;-42
2023/07/14 06:20:29;;;;;;;;;4.00;4.00;;;;;;;;5100382;27;45487;-43
2023/07/14 06:22:54;;;;;;;;;8.00;5.00;;;;;;;;5100555;27;45302;-44
2023/07/14 06:25:21;;;;;;;;;9.25;6.00;;;;;;;;5100840;27;45239;-44
2023/07/14 06:27:46;;;;;;;;;5.00;5.00;;;;;;;;5100819;27;45228;-42
2023/07/14 06:30:11;;;;;;;;;5.75;4.75;;;;;;;;5099964;27;46150;-43
2023/07/14 06:32:38;;;;;;;;;6.75;5.50;;;;;;;;5099990;27;45334;-42
2023/07/14 06:35:04;;;;;;;;;5.25;5.00;;;;;;;;5100491;27;45420;-44
2023/07/14 06:37:29;;;;;;;;;7.00;5.75;;;;;;;;5100064;27;45570;-43
2023/07/14 06:39:54;;;;;;;;;7.50;6.25;;;;;;;;5099743;27;45365;-43
2023/07/14 06:42:19;;;;;;;;;6.00;5.25;;;;;;;;5100189;27;45487;-44
2023/07/14 06:44:45;;;;;;;;;5.25;5.25;;;;;;;;5100179;27;45410;-44
2023/07/14 06:47:12;;;;;;;;;7.50;6.25;;;;;;;;5100102;27;45402;-43
2023/07/14 06:49:37;;;;;;;;;7.00;7.00;;;;;;;;5099954;27;45370;-43
2023/07/14 06:52:03;;;;;;;;;6.25;6.25;;;;;;;;5099974;27;45225;-43
2023/07/14 06:54:28;;;;;;;;;9.50;8.00;;;;;;;;5100064;27;45273;-41
2023/07/14 06:56:55;;;;;;;;;8.50;6.75;;;;;;;;5100058;27;45271;-41
2023/07/14 06:59:20;;;;;;;;;6.25;6.25;;;;;;;;5100004;27;47434;-42
2023/07/14 07:01:45;;;;;;;;;6.75;6.25;;;;;;;;5099842;27;45322;-43
2023/07/14 07:04:10;;;;;;;;;8.25;5.25;;;;;;;;5100019;27;45359;-42
2023/07/14 07:06:36;;;;;;;;;8.00;6.50;;;;;;;;5099972;27;45366;-43
2023/07/14 07:09:01;;;;;;;;;13.50;8.00;;;;;;;;5099883;27;45966;-44
2023/07/14 07:11:26;;;;;;;;;7.00;6.50;;;;;;;;5099977;27;45382;-43
2023/07/14 07:13:52;;;;;;;;;7.00;6.75;;;;;;;;5099925;27;45330;-45
2023/07/14 07:16:17;;;;;;;;;6.75;6.50;;;;;;;;5099946;27;45547;-43
2023/07/14 07:18:42;;;;;;;;;6.25;6.25;;;;;;;;5099506;27;46168;-43
2023/07/14 07:21:12;;;;;;;;;7.75;7.50;;;;;;;;5099720;27;45537;-44
2023/07/14 07:23:37;;;;;;;;;8.50;6.75;;;;;;;;5099869;27;45314;-44
2023/07/14 07:26:02;;;;;;;;;13.25;8.00;;;;;;;;5099952;27;46024;-44
2023/07/14 07:28:28;;;;;;;;;7.00;6.75;;;;;;;;5098838;27;45459;-43
2023/07/14 07:30:53;;;;;;;;;8.50;7.00;;;;;;;;5099478;27;45310;-45
2023/07/14 07:33:18;;;;;;;;;6.00;5.00;;;;;;;;5099664;27;45607;-44
2023/07/14 07:35:43;;;;;;;;;8.25;6.00;;;;;;;;5099661;27;45208;-44
2023/07/14 07:38:10;;;;;;;;;7.50;6.00;;;;;;;;5099143;27;47075;-44
2023/07/14 07:40:35;;;;;;;;;9.00;7.00;;;;;;;;5099164;27;45345;-43
2023/07/14 07:43:03;;;;;;;;;5.75;5.75;;;;;;;;5099786;27;45361;-45
2023/07/14 07:45:29;;;;;;;;;8.00;5.75;;;;;;;;5099499;27;45450;-45
2023/07/14 07:47:54;;;;;;;;;6.00;4.00;;;;;;;;5098906;27;45468;-43
2023/07/14 07:50:19;;;;;;;;;7.50;6.25;;;;;;;;5098638;27;45417;-43
2023/07/14 07:52:45;;;;;;;;;5.25;5.25;;;;;;;;5099256;27;46013;-41
2023/07/14 07:55:10;;;;;;;;;7.50;7.50;;;;;;;;5099413;27;45334;-42
2023/07/14 07:57:35;;;;;;;;;5.50;5.00;;;;;;;;5098660;27;45382;-44
2023/07/14 08:00:01;;;;;;;;;5.00;5.00;;;;;;;;5098421;27;45388;-43
2023/07/14 08:02:26;;;;;;;;;4.25;4.25;;;;;;;;5099146;27;45356;-42
2023/07/14 08:04:52;;;;;;;;;3.50;3.50;;;;;;;;5099032;27;45468;-43
2023/07/14 08:07:17;;;;;;;;;7.00;5.75;;;;;;;;5098546;27;46398;-44
2023/07/14 08:09:43;;;;;;;;;4.75;4.75;;;;;;;;5098765;27;45318;-46
2023/07/14 08:12:08;;;;;;;;;5.00;5.00;;;;;;;;5098233;27;45236;-43
2023/07/14 08:14:48;;;;;;;;;8.75;5.50;;;;;;;;5080437;27;45298;-44
2023/07/14 08:17:14;;;;;;;;;6.80;5.00;;;;;;;;5098375;27;46324;-44
2023/07/14 08:19:39;;;;;;;;;6.75;5.00;;;;;;;;5098651;27;45293;-44
2023/07/14 08:22:04;;;;;;;;;6.00;6.00;;;;;;;;5098654;27;45400;-42
2023/07/14 08:24:29;;;;;;;;;6.25;5.75;;;;;;;;5098804;27;45392;-44
2023/07/14 08:26:54;;;;;;;;;9.25;5.75;;;;;;;;5098634;27;46419;-43
2023/07/14 08:29:20;;;;;;;;;7.00;5.50;;;;;;;;5098481;27;45382;-43
2023/07/14 08:31:45;;;;;;;;;5.75;4.50;;;;;;;;5079819;27;45464;-43
2023/07/14 08:34:10;;;;;;;;;4.00;3.50;;;;;;;;5098738;27;45475;-44
2023/07/14 08:36:35;;;;;;;;;3.25;3.00;;;;;;;;5098256;27;45422;-43
2023/07/14 08:39:02;;;;;;;;;6.20;4.60;;;;;;;;5097829;27;45476;-46
2023/07/14 08:41:27;;;;;;;;;4.25;4.25;;;;;;;;5098453;27;45447;-45
2023/07/14 08:44:11;;;;;;;;;7.25;5.50;;;;;;;;5080443;27;45398;-43
2023/07/14 08:46:51;;;;;;;;;7.80;5.00;;;;;;;;5098159;27;45267;-44
2023/07/14 08:49:36;;;;;;;;;6.20;4.40;;;;;;;;5098144;27;45320;-44
2023/07/14 08:52:19;;;;;;;;;4.60;4.60;;;;;;;;5098088;27;45560;-43
2023/07/14 08:54:46;;;;;;;;;5.60;5.40;;;;;;;;5098300;27;45461;-43
2023/07/14 08:57:22;;;;;;;;;7.40;5.80;;;;;;;;5097703;27;46363;-43
2023/07/14 08:59:48;;;;;;;;;3.40;3.00;;;;;;;;5097807;27;45433;-42
2023/07/14 09:02:22;;;;;;;;;3.00;3.00;;;;;;;;5097908;27;45477;-43
2023/07/14 09:04:58;;;;;;;;;5.20;3.20;;;;;;;;5098118;27;45370;-45
2023/07/14 09:07:24;;;;;;;;;3.20;3.20;;;;;;;;5097702;27;45349;-43
2023/07/14 09:09:49;;;;;;;;;3.00;3.00;;;;;;;;5097873;27;45382;-42
2023/07/14 09:12:28;;;;;;;;;2.25;2.25;;;;;;;;5097904;27;45355;-43
2023/07/14 09:14:59;;;;;;;;;4.60;3.60;;;;;;;;5097912;27;45181;-45
2023/07/14 09:17:36;;;;;;;;;3.80;3.80;;;;;;;;5097201;27;45563;-44
2023/07/14 09:20:11;;;;;;;;;4.20;3.80;;;;;;;;5097708;27;45326;-44
2023/07/14 09:22:36;;;;;;;;;2.80;2.80;;;;;;;;5097407;27;45402;-42
2023/07/14 09:25:21;;;;;;;;;4.00;4.00;;;;;;;;5097186;27;45296;-45
2023/07/14 09:27:47;;;;;;;;;6.80;3.00;;;;;;;;5097580;27;46217;-44
2023/07/14 09:30:18;;;;;;;;;5.40;3.80;;;;;;;;5097465;27;45203;-44
2023/07/14 09:32:47;;;;;;;;;7.40;5.80;;;;;;;;5097671;27;45286;-44
2023/07/14 09:35:18;;;;;;;;;5.60;3.60;;;;;;;;5097676;27;45449;-45
2023/07/14 09:37:53;;;;;;;;;4.00;4.00;;;;;;;;5096951;27;47273;-42
2023/07/14 09:40:30;;;;;;;;;4.00;3.80;;;;;;;;5097466;27;45434;-42
2023/07/14 09:42:57;;;;;;;;;3.00;2.00;;;;;;;;5097670;27;45473;-44
2023/07/14 09:45:24;;;;;;;;;2.80;2.80;;;;;;;;5097694;27;45259;-45
2023/07/14 09:48:08;;;;;;;;;3.80;3.80;;;;;;;;5097419;27;45288;-44
2023/07/14 09:50:36;;;;;;;;;5.20;4.20;;;;;;;;5097421;27;45271;-45
2023/07/14 09:53:03;;;;;;;;;4.00;3.00;;;;;;;;5096891;27;45461;-44
2023/07/14 09:55:30;;;;;;;;;2.00;2.00;;;;;;;;5097485;27;45383;-43
2023/07/14 09:57:56;;;;;;;;;6.00;4.40;;;;;;;;5096861;27;46117;-45
2023/07/14 10:00:26;;;;;;;;;1.80;1.80;;;;;;;;5097224;27;45359;-43
2023/07/14 10:03:01;;;;;;;;;5.00;5.00;;;;;;;;5096736;27;45369;-43
2023/07/14 10:05:36;;;;;;;;;4.80;3.20;;;;;;;;5097240;27;45341;-45
2023/07/14 10:08:04;;;;;;;;;2.60;2.40;;;;;;;;5096721;27;46343;-45
2023/07/14 10:10:32;;;;;;;;;1.80;1.80;;;;;;;;5097155;27;45347;-43
2023/07/14 10:12:58;;;;;;;;;3.20;3.00;;;;;;;;5099585;27;45215;-46
2023/07/14 10:15:24;;;;;;;;;1.25;1.25;;;;;;;;5100850;27;45246;-44
2023/07/14 10:17:51;;;;;;;;;2.60;2.00;;;;;;;;5100028;27;45400;-44
2023/07/14 10:20:18;;;;;;;;;5.40;5.40;;;;;;;;5099980;27;45370;-50
2023/07/14 10:22:43;;;;;;;;;4.00;2.60;;;;;;;;5100314;27;45371;-44
2023/07/14 10:25:15;;;;;;;;;3.50;3.00;;;;;;;;5100532;27;45297;-45
2023/07/14 10:27:40;;;;;;;;;3.80;3.00;;;;;;;;5100207;27;46418;-48
2023/07/14 10:30:06;;;;;;;;;3.00;3.00;;;;;;;;5100222;27;45367;-46
2023/07/14 10:32:49;;;;;;;;;1.00;1.00;;;;;;;;5099227;27;45395;-44
2023/07/14 10:35:17;;;;;;;;;2.40;2.40;;;;;;;;5100459;27;45265;-45
2023/07/14 10:37:56;;;;;;;;;4.20;2.80;;;;;;;;5099377;27;45430;-45
2023/07/14 10:40:24;;;;;;;;;3.60;3.60;;;;;;;;5100069;27;45340;-46
2023/07/14 10:43:10;;;;;;;;;1.60;1.60;;;;;;;;5100102;27;45407;-45
2023/07/14 10:45:38;;;;;;;;;2.60;2.60;;;;;;;;5100191;27;45412;-44
2023/07/14 10:48:22;;;;;;;;;3.80;2.00;;;;;;;;5100003;27;45375;-45
2023/07/14 10:50:59;;;;;;;;;1.80;1.80;;;;;;;;5099389;27;45331;-44
2023/07/14 10:53:29;;;;;;;;;2.80;2.80;;;;;;;;5099849;27;45511;-45
2023/07/14 10:55:58;;;;;;;;;5.20;3.60;;;;;;;;5100093;27;45356;-43
2023/07/14 10:58:39;;;;;;;;;4.40;2.20;;;;;;;;5099630;27;47094;-45
2023/07/14 11:01:11;;;;;;;;;3.40;2.20;;;;;;;;5099977;27;45219;-44
2023/07/14 11:03:47;;;;;;;;;2.40;2.40;;;;;;;;5099780;27;45341;-45
2023/07/14 11:06:24;;;;;;;;;2.00;2.00;;;;;;;;5100015;27;45419;-45
2023/07/14 11:08:51;;;;;;;;;4.60;3.20;;;;;;;;5099292;27;46056;-45
2023/07/14 11:11:37;;;;;;;;;5.60;4.00;;;;;;;;5099565;27;45185;-45
2023/07/14 11:14:02;;;;;;;;;5.60;3.00;;;;;;;;5081680;27;45496;-45
2023/07/14 11:16:33;;;;;;;;;1.75;1.75;;;;;;;;5099786;27;45308;-45
2023/07/14 11:18:58;;;;;;;;;4.80;3.00;;;;;;;;5099378;27;45407;-44
2023/07/14 11:21:38;;;;;;;;;2.50;2.50;;;;;;;;5099544;27;45302;-44
2023/07/14 11:24:16;;;;;;;;;1.00;1.00;;;;;;;;5097902;27;45295;-45
2023/07/14 11:26:50;;;;;;;;;4.60;2.00;;;;;;;;5099654;27;45375;-44
2023/07/14 11:29:22;;;;;;;;;3.00;3.00;;;;;;;;5099033;27;46447;-45
2023/07/14 11:31:56;;;;;;;;;3.00;3.00;;;;;;;;5098836;27;45418;-44
2023/07/14 11:34:37;;;;;;;;;3.80;3.20;;;;;;;;5099305;27;45363;-47
2023/07/14 11:37:25;;;;;;;;;4.25;3.50;;;;;;;;5099314;27;45385;-45
2023/07/14 11:39:52;;;;;;;;;4.00;4.00;;;;;;;;5080312;27;47073;-46
2023/07/14 11:42:20;;;;;;;;;4.00;4.00;;;;;;;;5099036;27;45350;-44
2023/07/14 11:44:46;;;;;;;;;5.00;3.00;;;;;;;;5099257;27;45363;-43
2023/07/14 11:47:17;;;;;;;;;3.20;2.40;;;;;;;;5099144;27;45419;-44
2023/07/14 11:49:43;;;;;;;;;3.60;3.60;;;;;;;;5098792;27;46386;-43
2023/07/14 11:52:11;;;;;;;;;5.00;5.00;;;;;;;;5098857;27;45443;-44
2023/07/14 11:54:42;;;;;;;;;4.00;3.00;;;;;;;;5098752;27;45402;-44
2023/07/14 11:57:16;;;;;;;;;3.60;3.60;;;;;;;;5099221;27;45460;-41
2023/07/14 11:59:52;;;;;;;;;5.00;4.00;;;;;;;;5098985;27;47453;-44
2023/07/14 12:02:29;;;;;;;;;2.80;2.80;;;;;;;;5099171;27;45356;-45
2023/07/14 12:04:59;;;;;;;;;4.60;3.20;;;;;;;;5098413;27;45444;-43
2023/07/14 12:07:25;;;;;;;;;3.00;3.00;;;;;;;;5099028;27;45405;-44
2023/07/14 12:10:11;;;;;;;;;6.00;4.00;;;;;;;;5098568;27;45480;-44
2023/07/14 12:12:38;;;;;;;;;5.60;3.80;;;;;;;;5098816;27;45403;-44
2023/07/14 12:15:24;;;;;;;;;3.80;3.80;;;;;;;;5098971;27;45394;-45
2023/07/14 12:17:49;;;;;;;;;4.60;4.60;;;;;;;;5098905;27;45505;-44
2023/07/14 12:20:15;;;;;;;;;3.00;3.00;;;;;;;;5098400;27;46633;-43
2023/07/14 12:22:41;;;;;;;;;5.00;4.00;;;;;;;;5098398;27;45433;-44
2023/07/14 12:25:16;;;;;;;;;3.00;3.00;;;;;;;;5097940;27;45244;-43
2023/07/14 12:27:48;;;;;;;;;2.60;2.60;;;;;;;;5098587;27;45264;-45
2023/07/14 12:30:25;;;;;;;;;3.80;3.80;;;;;;;;5098014;27;46788;-45
2023/07/14 12:32:53;;;;;;;;;3.80;2.60;;;;;;;;5098268;27;45380;-43
2023/07/14 12:35:18;;;;;;;;;2.40;2.40;;;;;;;;5097910;27;45444;-45
2023/07/14 12:37:44;;;;;;;;;5.25;5.00;;;;;;;;5098370;27;45371;-43
2023/07/14 12:40:14;;;;;;;;;4.00;4.00;;;;;;;;5097910;27;46356;-43
2023/07/14 12:42:42;;;;;;;;;3.00;3.00;;;;;;;;5098457;27;45457;-45
2023/07/14 12:45:19;;;;;;;;;3.00;3.00;;;;;;;;5098088;27;45299;-42
2023/07/14 12:47:46;;;;;;;;;5.40;3.60;;;;;;;;5098248;27;45365;-42
2023/07/14 12:50:16;;;;;;;;;6.00;3.60;;;;;;;;5097730;27;45625;-44
2023/07/14 12:52:42;;;;;;;;;3.00;2.60;;;;;;;;5098052;27;45326;-44
2023/07/14 12:55:12;;;;;;;;;4.40;4.40;;;;;;;;5098029;27;45291;-43
2023/07/14 12:57:39;;;;;;;;;5.00;5.00;;;;;;;;5098177;27;45385;-45
2023/07/14 13:00:27;;;;;;;;;4.60;4.60;;;;;;;;5097666;27;46948;-44
2023/07/14 13:02:53;;;;;;;;;4.00;1.80;;;;;;;;5086577;27;45583;-45
2023/07/14 13:05:19;;;;;;;;;2.80;2.80;;;;;;;;5097890;27;45170;-45
2023/07/14 13:07:46;;;;;;;;;2.00;2.00;;;;;;;;5097857;27;45474;-46
2023/07/14 13:10:24;;;;;;;;;3.80;3.80;;;;;;;;5097324;27;46443;-43
2023/07/14 13:12:52;;;;;;;;;5.80;3.00;;;;;;;;5097814;27;45437;-45
2023/07/14 13:15:19;;;;;;;;;3.40;3.40;;;;;;;;5097906;27;45448;-45
2023/07/14 13:17:44;;;;;;;;;1.00;0.00;;;;;;;;5096795;27;45364;-44
2023/07/14 13:20:17;;;;;;;;;6.50;4.25;;;;;;;;5097571;27;45930;-45
2023/07/14 13:22:42;;;;;;;;;4.20;3.80;;;;;;;;5097549;27;45465;-43
2023/07/14 13:25:14;;;;;;;;;7.25;4.75;;;;;;;;5097542;27;45349;-43
2023/07/14 13:27:39;;;;;;;;;3.60;2.80;;;;;;;;5097609;27;45265;-43
2023/07/14 13:30:14;;;;;;;;;6.50;3.50;;;;;;;;5097283;27;46411;-43
2023/07/14 13:32:39;;;;;;;;;3.60;3.60;;;;;;;;5097408;27;45316;-44
2023/07/14 13:35:06;;;;;;;;;4.00;2.50;;;;;;;;5097750;27;45391;-46
2023/07/14 13:37:31;;;;;;;;;6.20;4.80;;;;;;;;5097662;27;45316;-45
2023/07/14 13:39:58;;;;;;;;;5.25;3.00;;;;;;;;5097239;27;45989;-45
2023/07/14 13:42:33;;;;;;;;;4.40;4.40;;;;;;;;5096138;27;45322;-45
2023/07/14 13:45:00;;;;;;;;;3.20;3.20;;;;;;;;5097648;27;45353;-44
2023/07/14 13:47:27;;;;;;;;;4.20;4.20;;;;;;;;5098905;27;45250;-44
2023/07/14 13:49:53;;;;;;;;;4.20;2.20;;;;;;;;5100706;27;45286;-44
2023/07/14 13:52:18;;;;;;;;;3.00;3.00;;;;;;;;5100762;27;45476;-43
2023/07/14 13:54:46;;;;;;;;;2.75;2.75;;;;;;;;5100959;27;45318;-44
2023/07/14 13:57:12;;;;;;;;;3.80;3.60;;;;;;;;5100946;27;45392;-44
2023/07/14 13:59:38;;;;;;;;;3.40;3.20;;;;;;;;5100519;27;46200;-45
2023/07/14 14:02:14;;;;;;;;;3.50;3.50;;;;;;;;5100872;27;45250;-45
2023/07/14 14:04:39;;;;;;;;;7.00;3.40;;;;;;;;5100820;27;45330;-44
2023/07/14 14:07:06;;;;;;;;;3.00;3.00;;;;;;;;5101061;27;45350;-44
2023/07/14 14:09:31;;;;;;;;;3.20;3.20;;;;;;;;5100517;27;47366;-44
2023/07/14 14:11:56;;;;;;;;;2.00;2.00;;;;;;;;5100670;27;45352;-46
2023/07/14 14:14:22;;;;;;;;;3.75;3.75;;;;;;;;5100895;27;45337;-46
2023/07/14 14:16:48;;;;;;;;;4.00;2.25;;;;;;;;5100697;27;45324;-43
2023/07/14 14:19:17;;;;;;;;;5.00;2.80;;;;;;;;5100372;27;46055;-44
2023/07/14 14:21:43;;;;;;;;;2.20;2.20;;;;;;;;5100606;27;45368;-43
2023/07/14 14:24:08;;;;;;;;;4.50;1.75;;;;;;;;5100377;27;45406;-45
2023/07/14 14:26:33;;;;;;;;;5.75;3.00;;;;;;;;5100694;27;45132;-50
2023/07/14 14:28:58;;;;;;;;;3.50;3.50;;;;;;;;5100312;27;45288;-45
2023/07/14 14:31:24;;;;;;;;;3.00;2.00;;;;;;;;5081799;27;46004;-43
2023/07/14 14:33:49;;;;;;;;;4.25;3.00;;;;;;;;5082007;27;45332;-45
2023/07/14 14:36:14;;;;;;;;;4.00;3.00;;;;;;;;5100476;27;45256;-44
2023/07/14 14:38:41;;;;;;;;;3.50;2.00;;;;;;;;5099984;27;46804;-43
2023/07/14 14:41:14;;;;;;;;;7.60;6.80;;;;;;;;5099964;27;45191;-44